createdAt,value
2023-11-30T00:00:23.276Z,19.50
2023-11-30T00:02:53.507Z,21.63
2023-11-30T00:05:24.029Z,21.08
2023-11-30T00:07:54.222Z,23.52
2023-11-30T00:10:24.872Z,20.85
2023-11-30T00:12:55.004Z,20.98
2023-11-30T00:15:25.387Z,19.08
2023-11-30T00:17:55.669Z,22.10
2023-11-30T00:20:25.930Z,20.00
2023-11-30T00:22:55.937Z,19.63
2023-11-30T00:25:27.835Z,21.40
2023-11-30T00:27:57.857Z,20.00
2023-11-30T00:30:28.336Z,20.25
2023-11-30T00:32:58.670Z,22.13
2023-11-30T00:35:29.058Z,21.38
2023-11-30T00:37:59.102Z,18.60
2023-11-30T00:40:29.511Z,20.17
2023-11-30T00:42:59.579Z,22.05
2023-11-30T00:45:30.008Z,21.25
2023-11-30T00:48:00.592Z,21.20
2023-11-30T00:50:31.010Z,21.33
2023-11-30T00:53:01.064Z,22.58
2023-11-30T00:55:31.457Z,19.65
2023-11-30T00:58:01.354Z,20.80
2023-11-30T01:00:31.608Z,21.25
2023-11-30T01:03:01.567Z,19.50
2023-11-30T01:05:32.045Z,23.23
2023-11-30T01:08:01.961Z,22.52
2023-11-30T01:10:32.194Z,19.92
2023-11-30T01:13:02.164Z,20.30
2023-11-30T01:15:32.634Z,21.20
2023-11-30T01:18:05.978Z,21.25
2023-11-30T01:20:37.655Z,20.92
2023-11-30T01:23:07.581Z,20.33
2023-11-30T01:25:37.916Z,19.42
2023-11-30T01:28:08.303Z,24.65
2023-11-30T01:30:38.492Z,20.13
2023-11-30T01:33:08.638Z,20.70
2023-11-30T01:35:38.946Z,21.30
2023-11-30T01:38:08.951Z,20.77
2023-11-30T01:40:39.244Z,21.58
2023-11-30T01:43:09.436Z,21.92
2023-11-30T01:45:40.273Z,20.17
2023-11-30T01:48:11.905Z,20.63
2023-11-30T01:50:42.444Z,21.17
2023-11-30T01:53:12.662Z,22.33
2023-11-30T01:55:43.239Z,22.33
2023-11-30T01:58:15.024Z,20.13
2023-11-30T02:00:45.845Z,24.58
2023-11-30T02:03:17.933Z,26.73
2023-11-30T02:05:48.347Z,27.70
2023-11-30T02:08:19.082Z,22.65
2023-11-30T02:10:49.306Z,22.38
2023-11-30T02:13:19.395Z,20.48
2023-11-30T02:15:50.194Z,19.98
2023-11-30T02:18:20.436Z,20.17
2023-11-30T02:20:50.844Z,20.67
2023-11-30T02:23:21.113Z,18.67
2023-11-30T02:25:51.557Z,19.77
2023-11-30T02:28:21.461Z,18.60
2023-11-30T02:30:51.793Z,18.77
2023-11-30T02:33:22.178Z,19.55
2023-11-30T02:35:52.894Z,20.90
2023-11-30T02:38:23.084Z,19.85
2023-11-30T02:40:53.561Z,18.77
2023-11-30T02:43:23.876Z,18.55
2023-11-30T02:45:54.335Z,19.52
2023-11-30T02:48:24.992Z,19.65
2023-11-30T02:50:55.248Z,21.08
2023-11-30T02:53:25.248Z,20.85
2023-11-30T02:55:55.188Z,19.48
2023-11-30T02:58:25.360Z,20.45
2023-11-30T03:00:55.617Z,20.38
2023-11-30T03:03:25.619Z,21.00
2023-11-30T03:05:56.438Z,20.67
2023-11-30T03:08:26.579Z,20.23
2023-11-30T03:10:57.037Z,19.85
2023-11-30T03:13:27.144Z,18.85
2023-11-30T03:15:57.520Z,20.13
2023-11-30T03:18:27.786Z,19.50
2023-11-30T03:20:58.109Z,19.38
2023-11-30T03:23:28.068Z,19.23
2023-11-30T03:25:58.244Z,20.85
2023-11-30T03:28:29.115Z,19.52
2023-11-30T03:30:59.343Z,19.27
2023-11-30T03:33:29.280Z,20.95
2023-11-30T03:35:59.486Z,20.30
2023-11-30T03:38:29.459Z,20.52
2023-11-30T03:41:00.624Z,20.90
2023-11-30T03:43:30.965Z,19.98
2023-11-30T03:46:01.273Z,21.13
2023-11-30T03:48:31.322Z,20.65
2023-11-30T03:51:01.834Z,20.60
2023-11-30T03:53:31.957Z,21.20
2023-11-30T03:56:02.492Z,21.88
2023-11-30T03:58:32.466Z,20.75
2023-11-30T04:01:02.982Z,21.88
2023-11-30T04:03:33.610Z,21.73
2023-11-30T04:06:04.675Z,24.67
2023-11-30T04:08:34.959Z,21.83
2023-11-30T04:11:05.956Z,22.35
2023-11-30T04:13:35.894Z,21.80
2023-11-30T04:16:06.645Z,22.80
2023-11-30T04:18:36.747Z,23.30
2023-11-30T04:21:08.274Z,21.80
2023-11-30T04:23:38.442Z,24.77
2023-11-30T04:26:09.089Z,29.23
2023-11-30T04:28:39.277Z,29.95
2023-11-30T04:31:10.338Z,28.98
2023-11-30T04:33:40.573Z,26.80
2023-11-30T04:36:11.512Z,24.17
2023-11-30T04:38:41.505Z,23.48
2023-11-30T04:41:12.120Z,24.50
2023-11-30T04:43:42.414Z,23.58
2023-11-30T04:46:12.948Z,24.10
2023-11-30T04:48:43.167Z,24.73
2023-11-30T04:51:13.696Z,23.30
2023-11-30T04:53:43.884Z,24.95
2023-11-30T04:56:14.294Z,24.10
2023-11-30T04:58:44.456Z,24.65
2023-11-30T05:01:14.970Z,24.23
2023-11-30T05:03:45.879Z,22.92
2023-11-30T05:06:16.344Z,26.55
2023-11-30T05:08:46.582Z,27.38
2023-11-30T05:11:17.677Z,24.15
2023-11-30T05:13:47.768Z,23.20
2023-11-30T05:16:18.245Z,26.30
2023-11-30T05:18:48.603Z,26.88
2023-11-30T05:21:19.124Z,27.10
2023-11-30T05:23:49.388Z,24.92
2023-11-30T05:26:19.768Z,22.98
2023-11-30T05:28:49.968Z,23.92
2023-11-30T05:31:20.509Z,25.10
2023-11-30T05:33:50.812Z,27.65
2023-11-30T05:36:21.526Z,25.02
2023-11-30T05:38:51.578Z,23.50
2023-11-30T05:41:22.094Z,24.83
2023-11-30T05:43:52.242Z,24.85
2023-11-30T05:46:22.896Z,26.13
2023-11-30T05:48:53.354Z,24.65
2023-11-30T05:51:23.868Z,25.30
2023-11-30T05:53:54.106Z,24.02
2023-11-30T05:56:24.581Z,28.33
2023-11-30T05:58:54.814Z,24.73
2023-11-30T06:01:25.269Z,25.15
2023-11-30T06:03:55.847Z,25.02
2023-11-30T06:06:26.380Z,26.63
2023-11-30T06:08:57.110Z,26.30
2023-11-30T06:11:27.730Z,26.77
2023-11-30T06:13:58.962Z,26.17
2023-11-30T06:16:30.240Z,27.80
2023-11-30T06:19:00.218Z,26.77
2023-11-30T06:21:30.285Z,25.75
2023-11-30T06:24:00.405Z,27.90
2023-11-30T06:26:30.882Z,26.25
2023-11-30T06:29:00.943Z,28.13
2023-11-30T06:31:31.259Z,26.65
2023-11-30T06:34:01.302Z,28.70
2023-11-30T06:36:32.341Z,26.45
2023-11-30T06:39:04.235Z,25.77
2023-11-30T06:41:34.717Z,29.20
2023-11-30T06:44:05.047Z,28.70
2023-11-30T06:46:37.483Z,28.77
2023-11-30T06:49:07.497Z,28.30
2023-11-30T06:51:38.149Z,26.00
2023-11-30T06:54:08.315Z,28.92
2023-11-30T06:56:38.773Z,26.65
2023-11-30T06:59:08.801Z,29.00
2023-11-30T07:01:39.358Z,29.48
2023-11-30T07:04:09.598Z,26.08
2023-11-30T07:06:40.225Z,30.80
2023-11-30T07:09:13.620Z,28.40
2023-11-30T07:11:43.952Z,31.50
2023-11-30T07:14:14.601Z,30.10
2023-11-30T07:16:45.043Z,29.50
2023-11-30T07:19:15.351Z,32.63
2023-11-30T07:21:45.799Z,32.58
2023-11-30T07:24:16.007Z,33.25
2023-11-30T07:26:49.081Z,34.03
2023-11-30T07:29:19.734Z,33.17
2023-11-30T07:31:52.103Z,34.60
2023-11-30T07:34:22.118Z,32.08
2023-11-30T07:36:52.686Z,32.35
2023-11-30T07:39:22.894Z,33.17
2023-11-30T07:41:53.281Z,34.97
2023-11-30T07:44:23.520Z,35.40
2023-11-30T07:46:53.785Z,32.47
2023-11-30T07:49:23.745Z,31.52
2023-11-30T07:51:54.230Z,31.38
2023-11-30T07:54:25.409Z,34.53
2023-11-30T07:56:55.943Z,32.55
2023-11-30T07:59:26.211Z,32.10
2023-11-30T08:01:56.667Z,29.23
2023-11-30T08:04:26.778Z,30.15
2023-11-30T08:06:57.257Z,30.38
2023-11-30T08:09:27.394Z,31.75
2023-11-30T08:11:57.755Z,31.73
2023-11-30T08:14:27.726Z,29.60
2023-11-30T08:16:59.485Z,30.08
2023-11-30T08:19:29.653Z,31.40
2023-11-30T08:21:59.921Z,34.20
2023-11-30T08:24:30.464Z,31.20
2023-11-30T08:27:01.189Z,44.13
2023-11-30T08:29:31.189Z,37.28
2023-11-30T08:32:01.775Z,33.85
2023-11-30T08:34:32.025Z,36.80
2023-11-30T08:37:02.366Z,34.65
2023-11-30T08:39:32.514Z,30.25
2023-11-30T08:42:03.043Z,34.42
2023-11-30T08:44:36.304Z,32.15
2023-11-30T08:47:06.750Z,34.22
2023-11-30T08:49:36.984Z,31.85
2023-11-30T08:52:07.474Z,34.42
2023-11-30T08:54:38.998Z,35.72
2023-11-30T08:57:13.100Z,37.25
2023-11-30T08:59:43.115Z,33.42
2023-11-30T09:02:14.451Z,33.55
2023-11-30T09:04:45.833Z,32.40
2023-11-30T09:07:16.178Z,32.88
2023-11-30T09:09:49.470Z,34.95
2023-11-30T09:12:22.164Z,37.95
2023-11-30T09:14:52.540Z,35.40
2023-11-30T09:17:23.052Z,39.45
2023-11-30T09:19:53.227Z,37.47
2023-11-30T09:22:23.712Z,38.22
2023-11-30T09:24:53.856Z,37.38
2023-11-30T09:27:24.256Z,36.35
2023-11-30T09:29:55.541Z,37.40
2023-11-30T09:32:25.839Z,37.78
2023-11-30T09:34:56.046Z,36.20
2023-11-30T09:37:26.505Z,36.88
2023-11-30T09:39:56.498Z,36.38
2023-11-30T09:42:27.969Z,38.80
2023-11-30T09:45:01.703Z,37.60
2023-11-30T09:47:32.833Z,37.55
2023-11-30T09:50:03.435Z,38.13
2023-11-30T09:52:33.825Z,35.70
2023-11-30T09:55:04.485Z,35.28
2023-11-30T09:57:35.357Z,36.15
2023-11-30T10:00:08.935Z,35.80
2023-11-30T10:02:39.229Z,39.20
2023-11-30T10:05:10.610Z,38.17
2023-11-30T10:07:40.855Z,35.42
2023-11-30T10:10:10.781Z,42.05
2023-11-30T10:12:41.455Z,44.10
2023-11-30T10:15:11.759Z,56.28
2023-11-30T10:17:42.884Z,47.53
2023-11-30T10:20:13.913Z,47.33
2023-11-30T10:22:44.265Z,43.78
2023-11-30T10:25:14.395Z,46.10
2023-11-30T10:27:48.694Z,51.50
2023-11-30T10:30:19.933Z,48.45
2023-11-30T10:32:50.785Z,49.05
2023-11-30T10:35:22.609Z,42.47
2023-11-30T10:37:54.769Z,40.40
2023-11-30T10:40:28.703Z,40.63
2023-11-30T10:43:04.854Z,40.80
2023-11-30T10:45:38.421Z,39.40
2023-11-30T10:48:12.988Z,46.55
2023-11-30T10:50:43.351Z,42.80
2023-11-30T10:53:42.481Z,42.67
2023-11-30T10:56:14.929Z,39.90
2023-11-30T10:58:45.441Z,38.60
2023-11-30T11:01:15.507Z,41.05
2023-11-30T11:03:53.643Z,38.95
2023-11-30T11:06:28.182Z,40.20
2023-11-30T11:09:06.881Z,41.03
2023-11-30T11:11:41.576Z,38.45
2023-11-30T11:14:34.075Z,38.05
2023-11-30T11:17:10.694Z,40.88
2023-11-30T11:19:42.853Z,45.17
2023-11-30T11:22:27.314Z,44.80
2023-11-30T11:24:59.684Z,44.28
2023-11-30T11:27:31.679Z,44.72
2023-11-30T11:30:08.671Z,42.65
2023-11-30T11:32:41.191Z,40.65
2023-11-30T11:35:12.040Z,39.60
2023-11-30T11:37:42.241Z,40.63
2023-11-30T11:40:12.936Z,41.55
2023-11-30T11:42:42.929Z,48.72
2023-11-30T11:45:13.465Z,41.47
2023-11-30T11:47:43.899Z,40.35
2023-11-30T11:50:14.311Z,49.05
2023-11-30T11:52:44.981Z,41.70
2023-11-30T11:55:15.355Z,42.83
2023-11-30T11:57:46.176Z,44.10
2023-11-30T12:00:21.696Z,48.83
2023-11-30T12:02:52.852Z,42.67
2023-11-30T12:05:26.887Z,48.40
2023-11-30T12:08:00.576Z,55.75
2023-11-30T12:10:42.619Z,46.28
2023-11-30T12:13:14.393Z,44.22
2023-11-30T12:15:47.750Z,42.53
2023-11-30T12:18:20.364Z,47.45
2023-11-30T12:20:50.929Z,46.45
2023-11-30T12:23:20.944Z,44.60
2023-11-30T12:25:54.086Z,43.65
2023-11-30T12:28:25.709Z,44.40
2023-11-30T12:30:56.198Z,42.55
2023-11-30T12:33:26.504Z,40.35
2023-11-30T12:35:57.075Z,49.42
2023-11-30T12:38:27.377Z,46.65
2023-11-30T12:40:58.111Z,48.00
2023-11-30T12:43:28.230Z,42.40
2023-11-30T12:45:58.982Z,42.88
2023-11-30T12:48:29.076Z,47.38
2023-11-30T12:50:59.378Z,55.10
2023-11-30T12:53:29.383Z,45.45
2023-11-30T12:56:00.251Z,48.00
2023-11-30T12:58:30.537Z,46.65
2023-11-30T13:01:00.953Z,43.90
2023-11-30T13:03:31.267Z,46.00
2023-11-30T13:06:01.967Z,52.80
2023-11-30T13:08:31.968Z,50.22
2023-11-30T13:11:03.009Z,43.80
2023-11-30T13:13:41.896Z,42.22
2023-11-30T13:16:13.090Z,39.55
2023-11-30T13:18:43.492Z,42.75
2023-11-30T13:21:14.302Z,61.97
2023-11-30T13:23:44.459Z,63.05
2023-11-30T13:26:16.059Z,39.30
2023-11-30T13:28:51.849Z,35.33
2023-11-30T13:31:23.085Z,29.27
2023-11-30T13:33:53.220Z,31.98
2023-11-30T13:36:23.394Z,32.65
2023-11-30T13:38:53.397Z,29.10
2023-11-30T13:41:24.653Z,29.45
2023-11-30T13:43:54.729Z,24.60
2023-11-30T13:46:25.152Z,25.30
2023-11-30T13:48:55.401Z,25.90
2023-11-30T13:51:25.917Z,26.40
2023-11-30T13:53:56.085Z,30.58
2023-11-30T13:56:26.582Z,26.02
2023-11-30T13:58:56.744Z,26.33
2023-11-30T14:01:28.532Z,29.08
2023-11-30T14:03:58.845Z,25.25
2023-11-30T14:06:29.216Z,25.00
2023-11-30T14:08:59.308Z,24.77
2023-11-30T14:11:29.626Z,28.30
2023-11-30T14:13:59.965Z,28.58
2023-11-30T14:16:30.296Z,25.92
2023-11-30T14:19:01.374Z,27.67
2023-11-30T14:21:32.035Z,30.45
2023-11-30T14:24:02.185Z,29.60
2023-11-30T14:26:32.538Z,30.20
2023-11-30T14:29:02.630Z,29.25
2023-11-30T14:31:33.408Z,28.88
2023-11-30T14:34:04.617Z,27.92
2023-11-30T14:36:35.162Z,30.25
2023-11-30T14:39:07.295Z,30.92
2023-11-30T14:41:38.505Z,28.08
2023-11-30T14:44:09.476Z,26.80
2023-11-30T14:46:39.969Z,29.48
2023-11-30T14:49:10.037Z,29.05
2023-11-30T14:51:40.411Z,29.73
2023-11-30T14:54:11.315Z,29.50
2023-11-30T14:56:42.040Z,27.27
2023-11-30T14:59:11.985Z,28.42
2023-11-30T15:01:42.571Z,31.42
2023-11-30T15:04:13.126Z,34.50
2023-11-30T15:06:47.112Z,28.58
2023-11-30T15:09:17.566Z,29.90
2023-11-30T15:11:47.885Z,27.35
2023-11-30T15:14:17.807Z,26.30
2023-11-30T15:16:49.650Z,62.83
2023-11-30T15:19:19.796Z,38.88
2023-11-30T15:21:50.240Z,36.28
2023-11-30T15:24:20.460Z,29.90
2023-11-30T15:26:51.368Z,30.35
2023-11-30T15:29:22.601Z,28.30
2023-11-30T15:31:53.149Z,26.60
2023-11-30T15:34:23.333Z,33.08
2023-11-30T15:36:53.874Z,30.75
2023-11-30T15:39:25.359Z,30.38
2023-11-30T15:41:55.851Z,28.75
2023-11-30T15:44:26.025Z,44.30
2023-11-30T15:46:56.542Z,36.30
2023-11-30T15:49:27.119Z,41.15
2023-11-30T15:51:57.588Z,32.63
2023-11-30T15:54:27.855Z,34.90
2023-11-30T15:56:58.318Z,33.00
2023-11-30T15:59:28.300Z,30.67
2023-11-30T16:01:58.849Z,30.33
2023-11-30T16:04:29.128Z,40.63
2023-11-30T16:06:59.618Z,50.10
2023-11-30T16:09:31.806Z,40.25
2023-11-30T16:12:02.297Z,36.40
2023-11-30T16:14:34.892Z,33.25
2023-11-30T16:17:05.251Z,46.63
2023-11-30T16:19:36.556Z,73.40
2023-11-30T16:22:07.537Z,49.75
2023-11-30T16:24:37.906Z,43.25
2023-11-30T16:27:08.784Z,40.45
2023-11-30T16:29:38.798Z,46.30
2023-11-30T16:32:09.294Z,39.50
2023-11-30T16:34:39.481Z,42.45
2023-11-30T16:37:11.143Z,58.88
2023-11-30T16:39:41.264Z,44.72
2023-11-30T16:42:11.699Z,41.85
2023-11-30T16:44:42.240Z,43.75
2023-11-30T16:47:13.709Z,39.75
2023-11-30T16:49:44.947Z,42.67
2023-11-30T16:52:15.463Z,50.28
2023-11-30T16:54:45.491Z,45.30
2023-11-30T16:57:15.834Z,47.67
2023-11-30T16:59:46.270Z,51.05
2023-11-30T17:02:16.863Z,55.08
2023-11-30T17:04:46.994Z,40.33
2023-11-30T17:07:17.346Z,40.67
2023-11-30T17:09:49.546Z,44.05
2023-11-30T17:12:20.065Z,39.03
2023-11-30T17:14:50.263Z,40.38
2023-11-30T17:17:20.649Z,35.30
2023-11-30T17:19:50.768Z,40.60
2023-11-30T17:22:21.196Z,60.22
2023-11-30T17:24:51.274Z,53.53
2023-11-30T17:27:21.697Z,42.88
2023-11-30T17:29:51.909Z,47.70
2023-11-30T17:32:22.400Z,37.10
2023-11-30T17:34:53.045Z,39.28
2023-11-30T17:37:23.641Z,35.00
2023-11-30T17:39:53.676Z,31.13
2023-11-30T17:42:24.261Z,31.83
2023-11-30T17:44:54.485Z,35.00
2023-11-30T17:47:24.972Z,33.08
2023-11-30T17:49:55.208Z,37.20
2023-11-30T17:52:25.680Z,35.10
2023-11-30T17:54:55.639Z,27.58
2023-11-30T17:57:26.241Z,46.65
2023-11-30T17:59:56.417Z,36.50
2023-11-30T18:02:27.723Z,27.25
2023-11-30T18:04:57.866Z,25.23
2023-11-30T18:07:30.657Z,21.98
2023-11-30T18:10:00.915Z,22.20
2023-11-30T18:12:31.346Z,25.40
2023-11-30T18:15:01.321Z,36.55
2023-11-30T18:17:33.034Z,34.63
2023-11-30T18:20:03.759Z,22.80
2023-11-30T18:22:34.709Z,54.35
2023-11-30T18:25:05.455Z,30.35
2023-11-30T18:27:35.838Z,36.55
2023-11-30T18:30:06.686Z,30.60
2023-11-30T18:32:41.448Z,29.88
2023-11-30T18:35:13.448Z,30.20
2023-11-30T18:37:43.811Z,27.05
2023-11-30T18:40:16.936Z,26.58
2023-11-30T18:42:47.597Z,25.80
2023-11-30T18:45:17.811Z,22.92
2023-11-30T18:47:48.339Z,24.92
2023-11-30T18:50:19.119Z,22.50
2023-11-30T18:52:49.971Z,20.73
2023-11-30T18:55:20.156Z,24.10
2023-11-30T18:57:51.151Z,25.90
2023-11-30T19:00:21.496Z,24.50
2023-11-30T19:02:52.420Z,20.15
2023-11-30T19:05:22.620Z,26.38
2023-11-30T19:07:53.664Z,22.02
2023-11-30T19:10:23.800Z,32.75
2023-11-30T19:12:54.398Z,27.38
2023-11-30T19:15:24.646Z,21.45
2023-11-30T19:17:56.371Z,20.33
2023-11-30T19:20:28.083Z,25.25
2023-11-30T19:22:58.808Z,22.63
2023-11-30T19:25:28.888Z,24.88
2023-11-30T19:27:59.495Z,25.23
2023-11-30T19:30:29.718Z,65.22
2023-11-30T19:33:01.071Z,40.63
2023-11-30T19:35:33.932Z,27.48
2023-11-30T19:38:04.240Z,27.40
2023-11-30T19:40:34.536Z,32.47
2023-11-30T19:43:05.257Z,23.95
2023-11-30T19:45:35.175Z,20.60
2023-11-30T19:48:05.869Z,18.45
2023-11-30T19:50:35.968Z,18.70
2023-11-30T19:53:06.372Z,18.95
2023-11-30T19:55:36.481Z,18.38
2023-11-30T19:58:07.010Z,18.15
2023-11-30T20:00:41.941Z,23.38
2023-11-30T20:03:13.206Z,19.75
2023-11-30T20:05:43.689Z,21.38
2023-11-30T20:08:13.974Z,22.42
2023-11-30T20:10:44.420Z,21.30
2023-11-30T20:13:14.726Z,20.20
2023-11-30T20:15:44.648Z,18.90
2023-11-30T20:18:15.267Z,20.67
2023-11-30T20:20:45.467Z,19.75
2023-11-30T20:23:16.067Z,22.15
2023-11-30T20:25:46.681Z,20.25
2023-11-30T20:28:17.035Z,19.98
2023-11-30T20:30:47.242Z,27.13
2023-11-30T20:33:18.277Z,22.88
2023-11-30T20:35:48.224Z,21.23
2023-11-30T20:38:18.396Z,23.27
2023-11-30T20:40:48.344Z,27.63
2023-11-30T20:43:18.997Z,43.17
2023-11-30T20:45:49.186Z,22.42
2023-11-30T20:48:20.060Z,19.25
2023-11-30T20:50:50.091Z,19.15
2023-11-30T20:53:20.407Z,19.20
2023-11-30T20:55:52.428Z,17.95
2023-11-30T20:58:22.914Z,18.92
2023-11-30T21:00:53.208Z,20.55
2023-11-30T21:13:39.970Z,20.55
2023-11-30T21:16:10.545Z,20.27
2023-11-30T21:18:40.878Z,23.45
2023-11-30T21:21:11.525Z,20.48
2023-11-30T21:23:41.792Z,22.85
2023-11-30T21:26:12.339Z,21.25
2023-11-30T21:28:42.505Z,22.20
2023-11-30T21:31:13.587Z,23.83
2023-11-30T21:33:44.138Z,21.52
2023-11-30T21:36:15.585Z,19.02
2023-11-30T21:38:46.487Z,24.90
2023-11-30T21:41:17.121Z,28.33
2023-11-30T21:43:47.546Z,24.02
2023-11-30T21:46:18.059Z,20.15
2023-11-30T21:48:48.585Z,34.20
2023-11-30T21:51:19.507Z,23.38
2023-11-30T21:53:49.965Z,21.90
2023-11-30T21:56:22.531Z,18.38
2023-11-30T21:58:52.975Z,20.17
2023-11-30T22:01:23.767Z,18.95
2023-11-30T22:03:54.802Z,19.38
2023-11-30T22:06:25.285Z,18.60
2023-11-30T22:08:56.317Z,16.58
2023-11-30T22:11:27.028Z,18.15
2023-11-30T22:13:57.468Z,15.32
2023-11-30T22:16:33.379Z,13.77
2023-11-30T22:19:10.685Z,15.98
2023-11-30T22:21:41.270Z,21.90
2023-11-30T22:24:11.842Z,17.35
2023-11-30T22:26:42.747Z,17.15
2023-11-30T22:29:13.219Z,16.95
2023-11-30T22:31:43.938Z,16.48
2023-11-30T22:34:14.529Z,13.88
2023-11-30T22:36:45.465Z,14.45
2023-11-30T22:39:15.884Z,14.30
2023-11-30T22:41:47.528Z,14.80
2023-11-30T22:44:18.191Z,14.35
2023-11-30T22:46:49.065Z,14.43
2023-11-30T22:49:20.899Z,14.68
2023-11-30T22:51:51.683Z,13.95
2023-11-30T22:54:22.984Z,14.85
2023-11-30T22:56:53.555Z,16.17
2023-11-30T22:59:23.756Z,17.20
2023-11-30T23:01:54.444Z,14.75
2023-11-30T23:04:24.980Z,14.10
2023-11-30T23:06:56.060Z,13.63
2023-11-30T23:09:26.847Z,14.18
2023-11-30T23:11:58.483Z,14.25
2023-11-30T23:14:29.062Z,17.83
2023-11-30T23:17:00.003Z,15.45
2023-11-30T23:19:32.753Z,15.23
2023-11-30T23:22:03.621Z,12.43
2023-11-30T23:24:34.133Z,14.48
2023-11-30T23:27:04.995Z,13.98
2023-11-30T23:29:37.901Z,12.68
2023-11-30T23:32:08.897Z,12.93
2023-11-30T23:34:39.574Z,14.15
2023-11-30T23:37:10.090Z,14.63
2023-11-30T23:39:40.394Z,12.10
2023-11-30T23:42:13.125Z,13.70
2023-11-30T23:44:43.458Z,11.65
2023-11-30T23:47:14.075Z,11.95
2023-11-30T23:49:44.602Z,10.48
2023-11-30T23:52:16.268Z,12.55
2023-11-30T23:54:47.464Z,13.70
2023-11-30T23:57:18.023Z,13.38
2023-11-30T23:59:48.163Z,14.20
